DW4782 Asprovalta GR current weather conditions

sailwx.info

Wind from 284 at 0 knots gusting 1

Air temperature 23.9° C
Dewpoint 18.7° C

Last reported at 2014-Jul-28 23:50 UTC.
Time now 2014-Jul-29 00:38 UTC

Location: N 40°43' E 023°43'.
View on Google Maps.

See reports from other nearby stations

  
Tides and Currents Weather Stations Pressure Air Temp Water Temp Dewpoint Dewpoint Depression Visibility Wind Speed Wind Dir Waves Ship Positions
date/time (UTC)wind fromknots sea level pressurealtimeterstation pressurevisibilityair tempwater tempwave heightnotes
2014-Jul-28 23:50 284 0 gusting 1 23.9
2014-Jul-28 23:40 261 23.9
2014-Jul-28 23:20 265 23.9
2014-Jul-28 23:10 253 0 gusting 1 23.9
2014-Jul-28 23:00 265 0 gusting 0 23.9
2014-Jul-28 22:50 260 0 gusting 2 23.9
2014-Jul-28 22:40 273 23.9
2014-Jul-28 22:30 273 23.9
2014-Jul-28 22:20 274 23.9
2014-Jul-28 22:00 252 1 gusting 1 23.9
2014-Jul-28 21:30 24.4
2014-Jul-28 21:20 273 24.4
2014-Jul-28 21:10 24.4
2014-Jul-28 21:00 253 24.4
2014-Jul-28 20:40 260 0 gusting 2 24.4
2014-Jul-28 20:30 254 1 gusting 3 24.4
2014-Jul-28 20:20 250 2 gusting 4 24.4
2014-Jul-28 20:10 247 1 gusting 3 24.4
2014-Jul-28 19:50 255 0 gusting 4 24.4
2014-Jul-28 19:40 25.0
2014-Jul-28 19:30 267 1 gusting 4 25.0
2014-Jul-28 19:20 291 25.0
2014-Jul-28 19:10 25.0
2014-Jul-28 19:00 285 0 gusting 1 25.0
2014-Jul-28 18:40 25.6
2014-Jul-28 18:30 246 26.1
2014-Jul-28 17:50 246 27.2
2014-Jul-28 17:20 098 28.3
2014-Jul-28 17:10 097 28.9
2014-Jul-28 17:00 097 28.9
2014-Jul-28 16:50 29.4
2014-Jul-28 16:40 097 29.4
2014-Jul-28 16:30 098 0 gusting 0 30.0
2014-Jul-28 16:20 102 0 gusting 1 30.0
2014-Jul-28 16:10 079 0 gusting 1 30.6
2014-Jul-28 16:00 094 1 gusting 2 30.6
2014-Jul-28 15:50 075 0 gusting 2 31.1
2014-Jul-28 15:40 114 0 gusting 3 31.1
2014-Jul-28 15:20 077 0 gusting 2 31.1
2014-Jul-28 15:10 039 1 gusting 4 31.1
2014-Jul-28 15:00 088 1 gusting 2 31.1
2014-Jul-28 14:50 110 0 gusting 4 31.1
2014-Jul-28 14:40 116 0 gusting 2 31.1
2014-Jul-28 14:30 095 1 gusting 4 31.1
2014-Jul-28 14:20 122 1 gusting 4 31.1
2014-Jul-28 14:10 095 0 gusting 4 31.1
2014-Jul-28 14:00 156 1 gusting 2 31.1
2014-Jul-28 13:40 125 1 gusting 3 31.1
2014-Jul-28 13:30 097 2 gusting 2 31.1
2014-Jul-28 13:20 145 2 gusting 4 31.7
2014-Jul-28 13:10 123 2 gusting 4 31.7
2014-Jul-28 13:00 129 2 gusting 5 31.7
2014-Jul-28 12:50 132 2 gusting 6 31.1
2014-Jul-28 12:40 120 2 gusting 6 31.1
2014-Jul-28 12:30 096 1 gusting 5 31.1
2014-Jul-28 12:20 090 1 gusting 4 31.1
2014-Jul-28 12:10 153 1 gusting 4 31.7
2014-Jul-28 12:00 078 1 gusting 4 31.7
2014-Jul-28 11:50 101 1 gusting 5 31.1
2014-Jul-28 11:40 110 1 gusting 6 31.1
2014-Jul-28 11:30 121 1 gusting 4 31.1
2014-Jul-28 11:10 123 1 gusting 2 31.1
2014-Jul-28 10:40 098 1 gusting 6 31.1
2014-Jul-28 10:20 082 1 gusting 5 31.1
2014-Jul-28 10:10 121 2 gusting 6 30.6
2014-Jul-28 10:00 112 2 gusting 7 30.6
2014-Jul-28 09:50 131 2 gusting 6 30.6
2014-Jul-28 09:40 119 2 gusting 6 31.1
2014-Jul-28 09:30 146 2 gusting 6 31.1
2014-Jul-28 09:10 141 1 gusting 3 30.6
2014-Jul-28 09:00 145 2 gusting 6 30.6
2014-Jul-28 08:50 107 2 gusting 5 30.6
2014-Jul-28 08:30 114 2 gusting 5 30.6
2014-Jul-28 08:10 121 2 gusting 6 30.6
2014-Jul-28 08:00 085 1 gusting 6 30.6
2014-Jul-28 07:50 078 1 gusting 4 30.6
2014-Jul-28 07:30 085 1 gusting 7 30.0
2014-Jul-28 07:20 046 1 gusting 3 30.0
2014-Jul-28 07:10 086 2 gusting 4 30.6
2014-Jul-28 07:00 040 1 gusting 4 30.0
2014-Jul-28 06:50 103 1 gusting 2 30.0
2014-Jul-28 06:40 087 1 gusting 6 30.0
2014-Jul-28 06:30 047 1 gusting 4 30.0
2014-Jul-28 06:10 344 0 gusting 1 29.4
2014-Jul-28 06:00 120 28.9
2014-Jul-28 05:50 109 28.3
2014-Jul-28 05:40 108 27.8
2014-Jul-28 05:20 26.7
2014-Jul-28 05:10 265 26.1
2014-Jul-28 04:50 252 25.0
2014-Jul-28 04:40 252 0 gusting 2 24.4
2014-Jul-28 04:30 253 0 gusting 1 24.4
2014-Jul-28 04:10 23.9
2014-Jul-28 04:00 272 23.9
2014-Jul-28 03:50 271 0 gusting 1 23.9
2014-Jul-28 03:40 253 0 gusting 3 23.9
2014-Jul-28 03:30 261 0 gusting 1 23.9
2014-Jul-28 03:20 272 0 gusting 1 23.9
2014-Jul-28 03:10 255 1 gusting 3 23.9
2014-Jul-28 03:00 256 1 gusting 3 23.9
2014-Jul-28 02:50 246 1 gusting 3 23.9
2014-Jul-28 02:40 262 1 gusting 2 23.9
2014-Jul-28 02:30 260 0 gusting 3 23.9
2014-Jul-28 02:20 257 0 gusting 1 23.9
2014-Jul-28 02:10 265 0 gusting 3 23.9
2014-Jul-28 02:00 293 0 gusting 0 23.9
2014-Jul-28 01:50 267 0 gusting 2 23.9
2014-Jul-28 01:40 23.9
2014-Jul-28 01:30 250 23.9
2014-Jul-28 01:20 280 24.4
2014-Jul-28 01:10 24.4
2014-Jul-28 01:00 279 24.4
2014-Jul-28 00:50 279 24.4
2014-Jul-28 00:30 24.4
2014-Jul-28 00:20 280 24.4
2014-Jul-28 00:10 279 24.4
2014-Jul-28 00:00 280 0 gusting 1 24.4
2014-Jul-27 23:50 259 24.4
2014-Jul-27 23:40 264 0 gusting 1 24.4
2014-Jul-27 23:30 259 1 gusting 1 25.0
2014-Jul-27 23:20 267 0 gusting 2 25.0
2014-Jul-27 23:10 270 0 gusting 2 25.0
2014-Jul-27 23:00 267 0 gusting 1 25.0
2014-Jul-27 22:50 254 25.0
2014-Jul-27 22:40 260 0 gusting 0 25.0
2014-Jul-27 22:30 253 1 gusting 4 24.4
2014-Jul-27 22:20 270 0 gusting 4 24.4
2014-Jul-27 22:10 264 0 gusting 1 24.4
2014-Jul-27 22:00 253 24.4
2014-Jul-27 21:30 24.4
2014-Jul-27 21:20 260 24.4
2014-Jul-27 21:10 24.4
2014-Jul-27 21:00 253 0 gusting 3 23.9
2014-Jul-27 20:50 265 0 gusting 2 23.9
2014-Jul-27 20:30 270 0 gusting 1 24.4
2014-Jul-27 20:20 270 24.4
2014-Jul-27 20:10 24.4
2014-Jul-27 20:00 25.0
2014-Jul-27 19:50 270 25.0
2014-Jul-27 19:40 25.0
2014-Jul-27 19:30 25.6
2014-Jul-27 19:20 270 25.6
2014-Jul-27 19:10 270 25.6
2014-Jul-27 18:50 26.1
2014-Jul-27 18:40 270 26.1
2014-Jul-27 18:30 263 26.7
2014-Jul-27 18:20 27.2
2014-Jul-27 18:10 27.8
2014-Jul-27 18:00 020 27.8
2014-Jul-27 17:50 018 28.3
2014-Jul-27 17:40 019 28.9
2014-Jul-27 17:30 28.9
2014-Jul-27 17:20 018 29.4
2014-Jul-27 17:10 019 30.0
2014-Jul-27 17:00 019 0 gusting 1 30.0
2014-Jul-27 16:50 029 0 gusting 2 30.0
2014-Jul-27 16:30 057 0 gusting 2 30.6
2014-Jul-27 16:20 074 0 gusting 1 30.6
2014-Jul-27 16:10 020 0 gusting 3 30.6
2014-Jul-27 16:00 015 2 gusting 6 31.1
2014-Jul-27 15:50 018 1 gusting 5 31.1
2014-Jul-27 15:40 078 0 gusting 2 31.1
2014-Jul-27 15:30 028 2 gusting 6 31.7
2014-Jul-27 15:00 087 2 gusting 6 31.7
2014-Jul-27 14:50 089 2 gusting 3 31.7
2014-Jul-27 14:40 049 1 gusting 6 31.7
2014-Jul-27 14:30 042 1 gusting 3 31.7
2014-Jul-27 14:20 082 1 gusting 4 31.7
2014-Jul-27 14:10 069 1 gusting 6 31.7
2014-Jul-27 14:00 035 1 gusting 5 31.7
2014-Jul-27 13:50 092 1 gusting 2 31.1
2014-Jul-27 13:40 103 0 gusting 4 31.1
2014-Jul-27 13:30 117 1 gusting 2 30.6
2014-Jul-27 13:20 094 1 gusting 4 31.1
2014-Jul-27 13:10 092 1 gusting 3 31.1
2014-Jul-27 13:00 062 2 gusting 5 31.1
2014-Jul-27 12:50 101 2 gusting 6 31.1
2014-Jul-27 12:40 086 2 gusting 4 31.1
2014-Jul-27 12:10 087 2 gusting 5 31.7
2014-Jul-27 12:00 099 2 gusting 5 31.7
2014-Jul-27 11:50 047 1 gusting 5 32.2
2014-Jul-27 11:40 120 1 gusting 5 31.7
2014-Jul-27 11:30 082 1 gusting 4 31.7
2014-Jul-27 11:20 077 2 gusting 5 31.1
2014-Jul-27 11:10 098 2 gusting 6 31.7
2014-Jul-27 11:00 076 2 gusting 6 31.7
2014-Jul-27 10:50 062 2 gusting 6 31.7
2014-Jul-27 10:40 069 2 gusting 6 32.2
2014-Jul-27 10:30 088 2 gusting 4 32.2
2014-Jul-27 10:20 085 2 gusting 5 32.2
2014-Jul-27 10:10 041 1 gusting 4 32.2
2014-Jul-27 10:00 065 1 gusting 4 32.2
2014-Jul-27 09:50 119 1 gusting 4 32.2
2014-Jul-27 09:40 084 2 gusting 6 31.7
2014-Jul-27 09:30 109 2 gusting 5 31.7
2014-Jul-27 09:10 086 2 gusting 7 32.2
2014-Jul-27 08:40 104 1 gusting 4 32.2
2014-Jul-27 08:30 145 1 gusting 3 32.2
2014-Jul-27 08:20 130 0 gusting 3 32.2
2014-Jul-27 08:00 123 0 gusting 2 31.7
2014-Jul-27 07:50 131 0 gusting 2 31.7
2014-Jul-27 07:40 131 0 gusting 3 31.1
2014-Jul-27 07:30 130 0 gusting 3 31.1
2014-Jul-27 07:00 129 0 gusting 2 30.6
2014-Jul-27 06:50 134 0 gusting 1 30.0
2014-Jul-27 06:40 118 0 gusting 4 30.0
2014-Jul-27 06:30 106 0 gusting 2 29.4
2014-Jul-27 06:20 135 0 gusting 3 29.4
2014-Jul-27 06:10 161 0 gusting 2 28.9
2014-Jul-27 06:00 164 28.3
2014-Jul-27 05:50 164 0 gusting 1 27.8
2014-Jul-27 05:40 240 27.2
2014-Jul-27 05:30 252 26.7
2014-Jul-27 05:20 251 25.6
2014-Jul-27 05:10 24.4
2014-Jul-27 05:00 252 23.9
2014-Jul-27 04:50 23.3
2014-Jul-27 04:40 22.8
2014-Jul-27 04:30 22.2
2014-Jul-27 04:20 22.2
2014-Jul-27 04:10 252 21.7
2014-Jul-27 03:30 21.7
2014-Jul-27 03:20 22.2
2014-Jul-27 03:00 22.2
2014-Jul-27 02:50 251 22.8
2014-Jul-27 02:40 22.8
2014-Jul-27 02:30 251 22.8
2014-Jul-27 02:10 251 1 gusting 3 22.8
2014-Jul-27 02:00 247 22.2
2014-Jul-27 01:40 253 22.2
2014-Jul-27 01:30 270 22.2
2014-Jul-27 01:20 270 22.8
2014-Jul-27 01:00 23.3
2014-Jul-27 00:50 23.3
2014-Jul-27 00:40 270 23.9
2014-Jul-27 00:30 23.9
2014-Jul-27 00:20 270 0 gusting 0 23.9
2014-Jul-27 00:10 249 1 gusting 3 23.9
2014-Jul-27 00:00 251 1 gusting 3 23.9